sensor_id;sensor_type;location;lat;lon;timestamp;temperature;humidity
75985;DHT22;65033;44.660;37.758;2023-04-25T00:00:57;11.72;86.29
75985;DHT22;65033;44.660;37.758;2023-04-25T00:02:16;11.72;85.46
75985;DHT22;65033;44.660;37.758;2023-04-25T00:03:24;11.72;84.28
75985;DHT22;65033;44.660;37.758;2023-04-25T00:04:29;11.75;84.90
75985;DHT22;65033;44.660;37.758;2023-04-25T00:05:39;11.77;86.17
75985;DHT22;65033;44.660;37.758;2023-04-25T00:06:45;11.78;83.71
75985;DHT22;65033;44.660;37.758;2023-04-25T00:07:52;11.78;83.14
75985;DHT22;65033;44.660;37.758;2023-04-25T00:08:58;11.81;83.65
75985;DHT22;65033;44.660;37.758;2023-04-25T00:10:32;11.79;82.97
75985;DHT22;65033;44.660;37.758;2023-04-25T00:11:39;11.81;82.28
75985;DHT22;65033;44.660;37.758;2023-04-25T00:12:48;11.84;81.20
75985;DHT22;65033;44.660;37.758;2023-04-25T00:14:02;11.84;81.77
75985;DHT22;65033;44.660;37.758;2023-04-25T00:15:07;11.86;80.62
75985;DHT22;65033;44.660;37.758;2023-04-25T00:16:26;11.85;81.10
75985;DHT22;65033;44.660;37.758;2023-04-25T00:17:35;11.85;82.22
75985;DHT22;65033;44.660;37.758;2023-04-25T00:18:45;11.87;81.61
75985;DHT22;65033;44.660;37.758;2023-04-25T00:19:55;11.86;81.50
75985;DHT22;65033;44.660;37.758;2023-04-25T00:21:05;11.85;81.26
75985;DHT22;65033;44.660;37.758;2023-04-25T00:22:10;11.88;81.34
75985;DHT22;65033;44.660;37.758;2023-04-25T00:23:14;11.90;81.25
75985;DHT22;65033;44.660;37.758;2023-04-25T00:24:22;11.89;81.86
75985;DHT22;65033;44.660;37.758;2023-04-25T00:25:28;11.87;82.58
75985;DHT22;65033;44.660;37.758;2023-04-25T00:26:34;11.88;82.52
75985;DHT22;65033;44.660;37.758;2023-04-25T00:27:38;11.87;82.13
75985;DHT22;65033;44.660;37.758;2023-04-25T00:28:44;11.88;82.10
75985;DHT22;65033;44.660;37.758;2023-04-25T00:29:51;11.89;82.33
75985;DHT22;65033;44.660;37.758;2023-04-25T00:30:56;11.92;82.14
75985;DHT22;65033;44.660;37.758;2023-04-25T00:32:05;11.93;82.62
75985;DHT22;65033;44.660;37.758;2023-04-25T00:33:10;11.94;81.72
75985;DHT22;65033;44.660;37.758;2023-04-25T00:34:16;11.92;81.39
75985;DHT22;65033;44.660;37.758;2023-04-25T00:35:20;11.92;81.68
75985;DHT22;65033;44.660;37.758;2023-04-25T00:36:26;11.92;80.85
75985;DHT22;65033;44.660;37.758;2023-04-25T00:37:36;11.91;81.13
75985;DHT22;65033;44.660;37.758;2023-04-25T00:38:40;12.32;86.99
75985;DHT22;65033;44.660;37.758;2023-04-25T00:39:43;12.37;82.81
75985;DHT22;65033;44.660;37.758;2023-04-25T00:40:48;12.32;82.91
75985;DHT22;65033;44.660;37.758;2023-04-25T00:41:54;12.27;91.66
75985;DHT22;65033;44.660;37.758;2023-04-25T00:42:59;12.22;92.05
75985;DHT22;65033;44.660;37.758;2023-04-25T00:44:06;12.16;92.75
75985;DHT22;65033;44.660;37.758;2023-04-25T00:45:13;12.13;94.57
75985;DHT22;65033;44.660;37.758;2023-04-25T00:46:20;12.07;92.07
75985;DHT22;65033;44.660;37.758;2023-04-25T00:47:25;12.01;95.42
75985;DHT22;65033;44.660;37.758;2023-04-25T00:48:29;11.98;95.43
75985;DHT22;65033;44.660;37.758;2023-04-25T00:49:34;11.93;91.90
75985;DHT22;65033;44.660;37.758;2023-04-25T00:50:39;11.93;90.38
75985;DHT22;65033;44.660;37.758;2023-04-25T00:51:44;11.89;96.87
75985;DHT22;65033;44.660;37.758;2023-04-25T00:52:48;11.88;94.58
75985;DHT22;65033;44.660;37.758;2023-04-25T00:53:52;11.88;95.52
75985;DHT22;65033;44.660;37.758;2023-04-25T00:54:56;11.88;93.66
75985;DHT22;65033;44.660;37.758;2023-04-25T00:56:02;11.86;96.56
75985;DHT22;65033;44.660;37.758;2023-04-25T00:57:06;11.90;94.36
75985;DHT22;65033;44.660;37.758;2023-04-25T00:58:11;11.92;89.73
75985;DHT22;65033;44.660;37.758;2023-04-25T00:59:15;11.92;88.57
75985;DHT22;65033;44.660;37.758;2023-04-25T01:00:19;11.94;87.74
75985;DHT22;65033;44.660;37.758;2023-04-25T01:01:24;11.92;88.96
75985;DHT22;65033;44.660;37.758;2023-04-25T01:02:30;11.91;85.31
75985;DHT22;65033;44.660;37.758;2023-04-25T01:03:38;11.93;85.91
75985;DHT22;65033;44.660;37.758;2023-04-25T01:04:44;11.92;85.22
75985;DHT22;65033;44.660;37.758;2023-04-25T01:05:49;11.91;86.02
75985;DHT22;65033;44.660;37.758;2023-04-25T01:06:53;11.90;84.74
75985;DHT22;65033;44.660;37.758;2023-04-25T01:07:57;11.87;83.48
75985;DHT22;65033;44.660;37.758;2023-04-25T01:09:03;11.85;82.35
75985;DHT22;65033;44.660;37.758;2023-04-25T01:10:08;11.82;81.53
75985;DHT22;65033;44.660;37.758;2023-04-25T01:11:14;11.82;82.81
75985;DHT22;65033;44.660;37.758;2023-04-25T01:12:18;11.79;81.40
75985;DHT22;65033;44.660;37.758;2023-04-25T01:13:22;11.78;82.18
75985;DHT22;65033;44.660;37.758;2023-04-25T01:14:26;11.77;82.97
75985;DHT22;65033;44.660;37.758;2023-04-25T01:15:32;11.76;80.76
75985;DHT22;65033;44.660;37.758;2023-04-25T01:16:37;11.75;80.75
75985;DHT22;65033;44.660;37.758;2023-04-25T01:17:47;11.75;80.33
75985;DHT22;65033;44.660;37.758;2023-04-25T01:18:55;11.83;85.22
75985;DHT22;65033;44.660;37.758;2023-04-25T01:20:02;12.48;91.11
75985;DHT22;65033;44.660;37.758;2023-04-25T01:21:13;12.70;92.87
75985;DHT22;65033;44.660;37.758;2023-04-25T01:22:24;12.64;93.33
75985;DHT22;65033;44.660;37.758;2023-04-25T01:23:29;12.52;93.16
75985;DHT22;65033;44.660;37.758;2023-04-25T01:24:42;12.40;93.82
75985;DHT22;65033;44.660;37.758;2023-04-25T01:25:49;12.30;97.19
75985;DHT22;65033;44.660;37.758;2023-04-25T01:26:54;12.20;96.28
75985;DHT22;65033;44.660;37.758;2023-04-25T01:28:02;12.21;93.17
75985;DHT22;65033;44.660;37.758;2023-04-25T01:29:12;12.15;95.46
75985;DHT22;65033;44.660;37.758;2023-04-25T01:30:19;12.15;93.31
75985;DHT22;65033;44.660;37.758;2023-04-25T01:31:26;12.07;95.19
75985;DHT22;65033;44.660;37.758;2023-04-25T01:32:34;12.03;96.39
75985;DHT22;65033;44.660;37.758;2023-04-25T01:33:44;12.01;99.45
75985;DHT22;65033;44.660;37.758;2023-04-25T01:34:47;12.01;97.07
75985;DHT22;65033;44.660;37.758;2023-04-25T01:35:55;11.99;98.06
75985;DHT22;65033;44.660;37.758;2023-04-25T01:37:01;11.99;100.25
75985;DHT22;65033;44.660;37.758;2023-04-25T01:38:09;11.98;98.68
75985;DHT22;65033;44.660;37.758;2023-04-25T01:39:20;11.99;100.35
75985;DHT22;65033;44.660;37.758;2023-04-25T01:40:28;12.00;100.35
75985;DHT22;65033;44.660;37.758;2023-04-25T01:41:38;12.03;100.53
75985;DHT22;65033;44.660;37.758;2023-04-25T01:42:48;12.06;98.58
75985;DHT22;65033;44.660;37.758;2023-04-25T01:43:52;12.11;99.27
75985;DHT22;65033;44.660;37.758;2023-04-25T01:45:06;12.14;96.93
75985;DHT22;65033;44.660;37.758;2023-04-25T01:46:11;12.14;98.75
75985;DHT22;65033;44.660;37.758;2023-04-25T01:47:20;12.13;98.95
75985;DHT22;65033;44.660;37.758;2023-04-25T01:48:26;12.14;97.42
75985;DHT22;65033;44.660;37.758;2023-04-25T01:49:40;12.12;98.66
75985;DHT22;65033;44.660;37.758;2023-04-25T01:50:58;12.13;98.11
75985;DHT22;65033;44.660;37.758;2023-04-25T01:52:08;12.14;100.28
75985;DHT22;65033;44.660;37.758;2023-04-25T01:53:15;12.15;96.86
75985;DHT22;65033;44.660;37.758;2023-04-25T01:54:21;12.14;98.69
75985;DHT22;65033;44.660;37.758;2023-04-25T01:55:28;12.15;102.67
75985;DHT22;65033;44.660;37.758;2023-04-25T01:56:43;12.20;101.44
75985;DHT22;65033;44.660;37.758;2023-04-25T01:57:46;12.20;102.03
75985;DHT22;65033;44.660;37.758;2023-04-25T01:58:50;12.22;101.24
75985;DHT22;65033;44.660;37.758;2023-04-25T01:59:58;12.27;101.18
75985;DHT22;65033;44.660;37.758;2023-04-25T02:01:15;12.33;100.41
75985;DHT22;65033;44.660;37.758;2023-04-25T02:02:29;12.38;100.77
75985;DHT22;65033;44.660;37.758;2023-04-25T02:03:36;12.41;100.24
75985;DHT22;65033;44.660;37.758;2023-04-25T02:05:15;12.43;102.15
75985;DHT22;65033;44.660;37.758;2023-04-25T02:06:20;12.44;101.11
75985;DHT22;65033;44.660;37.758;2023-04-25T02:07:30;12.38;100.13
75985;DHT22;65033;44.660;37.758;2023-04-25T02:08:38;12.37;101.22
75985;DHT22;65033;44.660;37.758;2023-04-25T02:09:51;12.34;102.71
75985;DHT22;65033;44.660;37.758;2023-04-25T02:10:56;12.34;100.19
75985;DHT22;65033;44.660;37.758;2023-04-25T02:12:11;12.35;102.59
75985;DHT22;65033;44.660;37.758;2023-04-25T02:13:44;12.36;103.02
75985;DHT22;65033;44.660;37.758;2023-04-25T02:15:13;12.41;103.89
75985;DHT22;65033;44.660;37.758;2023-04-25T02:16:27;12.41;104.02
75985;DHT22;65033;44.660;37.758;2023-04-25T02:17:50;12.41;102.60
75985;DHT22;65033;44.660;37.758;2023-04-25T02:19:51;12.40;103.19
75985;DHT22;65033;44.660;37.758;2023-04-25T02:20:54;12.40;102.33
75985;DHT22;65033;44.660;37.758;2023-04-25T02:22:03;12.37;103.50
75985;DHT22;65033;44.660;37.758;2023-04-25T02:23:13;12.37;103.45
75985;DHT22;65033;44.660;37.758;2023-04-25T02:24:18;12.37;105.40
75985;DHT22;65033;44.660;37.758;2023-04-25T02:25:37;12.35;105.82
75985;DHT22;65033;44.660;37.758;2023-04-25T02:26:47;12.43;101.30
75985;DHT22;65033;44.660;37.758;2023-04-25T02:28:06;12.40;103.76
75985;DHT22;65033;44.660;37.758;2023-04-25T02:29:17;12.42;102.14
75985;DHT22;65033;44.660;37.758;2023-04-25T02:30:20;12.40;103.07
75985;DHT22;65033;44.660;37.758;2023-04-25T02:31:25;12.41;101.69
75985;DHT22;65033;44.660;37.758;2023-04-25T02:32:34;12.41;102.60
75985;DHT22;65033;44.660;37.758;2023-04-25T02:33:42;12.43;102.51
75985;DHT22;65033;44.660;37.758;2023-04-25T02:34:57;12.40;102.44
75985;DHT22;65033;44.660;37.758;2023-04-25T02:36:07;12.41;102.10
75985;DHT22;65033;44.660;37.758;2023-04-25T02:37:11;12.40;103.40
75985;DHT22;65033;44.660;37.758;2023-04-25T02:38:18;12.42;103.11
75985;DHT22;65033;44.660;37.758;2023-04-25T02:39:30;12.38;103.33
75985;DHT22;65033;44.660;37.758;2023-04-25T02:40:33;12.35;102.68
75985;DHT22;65033;44.660;37.758;2023-04-25T02:41:52;12.34;103.32
75985;DHT22;65033;44.660;37.758;2023-04-25T02:42:57;12.34;102.33
75985;DHT22;65033;44.660;37.758;2023-04-25T02:44:01;12.33;101.50
75985;DHT22;65033;44.660;37.758;2023-04-25T02:45:08;12.34;101.06
75985;DHT22;65033;44.660;37.758;2023-04-25T02:46:14;12.36;101.60
75985;DHT22;65033;44.660;37.758;2023-04-25T02:47:30;12.34;100.92
75985;DHT22;65033;44.660;37.758;2023-04-25T02:48:45;12.35;101.61
75985;DHT22;65033;44.660;37.758;2023-04-25T02:49:56;12.35;101.05
75985;DHT22;65033;44.660;37.758;2023-04-25T02:51:00;12.34;102.02
75985;DHT22;65033;44.660;37.758;2023-04-25T02:52:14;12.34;100.86
75985;DHT22;65033;44.660;37.758;2023-04-25T02:53:33;12.35;100.28
75985;DHT22;65033;44.660;37.758;2023-04-25T02:54:42;12.32;99.95
75985;DHT22;65033;44.660;37.758;2023-04-25T02:55:50;12.27;100.06
75985;DHT22;65033;44.660;37.758;2023-04-25T02:56:59;12.27;99.77
75985;DHT22;65033;44.660;37.758;2023-04-25T02:58:25;12.25;99.55
75985;DHT22;65033;44.660;37.758;2023-04-25T02:59:45;12.22;97.99
75985;DHT22;65033;44.660;37.758;2023-04-25T03:00:53;12.21;98.93
75985;DHT22;65033;44.660;37.758;2023-04-25T03:02:09;12.21;99.39
75985;DHT22;65033;44.660;37.758;2023-04-25T03:03:21;12.20;99.69
75985;DHT22;65033;44.660;37.758;2023-04-25T03:04:33;12.20;99.30
75985;DHT22;65033;44.660;37.758;2023-04-25T03:05:39;12.21;100.25
75985;DHT22;65033;44.660;37.758;2023-04-25T03:06:47;12.26;100.01
75985;DHT22;65033;44.660;37.758;2023-04-25T03:07:56;12.27;101.42
75985;DHT22;65033;44.660;37.758;2023-04-25T03:09:17;12.28;103.34
75985;DHT22;65033;44.660;37.758;2023-04-25T03:10:26;12.30;104.17
75985;DHT22;65033;44.660;37.758;2023-04-25T03:11:34;12.34;102.59
75985;DHT22;65033;44.660;37.758;2023-04-25T03:12:38;12.35;103.08
75985;DHT22;65033;44.660;37.758;2023-04-25T03:13:48;12.34;102.84
75985;DHT22;65033;44.660;37.758;2023-04-25T03:14:58;12.34;100.12
75985;DHT22;65033;44.660;37.758;2023-04-25T03:16:03;12.38;101.99
75985;DHT22;65033;44.660;37.758;2023-04-25T03:17:10;12.41;99.94
75985;DHT22;65033;44.660;37.758;2023-04-25T03:18:15;12.41;98.87
75985;DHT22;65033;44.660;37.758;2023-04-25T03:19:20;12.38;97.74
75985;DHT22;65033;44.660;37.758;2023-04-25T03:20:26;12.37;99.43
75985;DHT22;65033;44.660;37.758;2023-04-25T03:21:37;12.36;97.84
75985;DHT22;65033;44.660;37.758;2023-04-25T03:22:43;12.33;97.60
75985;DHT22;65033;44.660;37.758;2023-04-25T03:23:53;12.33;95.99
75985;DHT22;65033;44.660;37.758;2023-04-25T03:25:05;12.31;95.62
75985;DHT22;65033;44.660;37.758;2023-04-25T03:26:17;12.28;93.92
75985;DHT22;65033;44.660;37.758;2023-04-25T03:27:21;12.22;93.85
75985;DHT22;65033;44.660;37.758;2023-04-25T03:28:35;12.20;94.58
75985;DHT22;65033;44.660;37.758;2023-04-25T03:29:40;12.19;91.78
75985;DHT22;65033;44.660;37.758;2023-04-25T03:30:54;12.17;91.70
75985;DHT22;65033;44.660;37.758;2023-04-25T03:32:05;12.15;92.62
75985;DHT22;65033;44.660;37.758;2023-04-25T03:33:12;12.15;89.70
75985;DHT22;65033;44.660;37.758;2023-04-25T03:34:24;12.13;94.18
75985;DHT22;65033;44.660;37.758;2023-04-25T03:35:29;12.12;89.64
75985;DHT22;65033;44.660;37.758;2023-04-25T03:36:42;12.12;89.39
75985;DHT22;65033;44.660;37.758;2023-04-25T03:37:50;12.08;88.53
75985;DHT22;65033;44.660;37.758;2023-04-25T03:39:02;12.08;87.36
75985;DHT22;65033;44.660;37.758;2023-04-25T03:40:16;12.10;87.81
75985;DHT22;65033;44.660;37.758;2023-04-25T03:41:50;12.07;89.89
75985;DHT22;65033;44.660;37.758;2023-04-25T03:43:00;12.10;89.52
75985;DHT22;65033;44.660;37.758;2023-04-25T03:44:05;12.10;89.95
75985;DHT22;65033;44.660;37.758;2023-04-25T03:45:13;12.06;92.59
75985;DHT22;65033;44.660;37.758;2023-04-25T03:46:19;12.06;92.25
75985;DHT22;65033;44.660;37.758;2023-04-25T03:47:34;12.07;101.57
75985;DHT22;65033;44.660;37.758;2023-04-25T03:48:38;12.10;90.91
75985;DHT22;65033;44.660;37.758;2023-04-25T03:50:08;12.08;92.46
75985;DHT22;65033;44.660;37.758;2023-04-25T03:51:19;12.10;95.09
75985;DHT22;65033;44.660;37.758;2023-04-25T03:52:26;12.13;91.60
75985;DHT22;65033;44.660;37.758;2023-04-25T03:53:48;12.11;93.86
75985;DHT22;65033;44.660;37.758;2023-04-25T03:55:16;12.15;95.31
75985;DHT22;65033;44.660;37.758;2023-04-25T03:56:22;12.17;91.90
75985;DHT22;65033;44.660;37.758;2023-04-25T03:57:41;12.15;92.50
75985;DHT22;65033;44.660;37.758;2023-04-25T03:58:48;12.14;94.80
75985;DHT22;65033;44.660;37.758;2023-04-25T03:59:57;12.17;93.72
75985;DHT22;65033;44.660;37.758;2023-04-25T04:01:32;12.22;92.52
75985;DHT22;65033;44.660;37.758;2023-04-25T04:02:40;12.27;95.71
75985;DHT22;65033;44.660;37.758;2023-04-25T04:03:49;12.31;95.33
75985;DHT22;65033;44.660;37.758;2023-04-25T04:04:57;12.37;97.07
75985;DHT22;65033;44.660;37.758;2023-04-25T04:06:04;12.44;96.97
75985;DHT22;65033;44.660;37.758;2023-04-25T04:07:14;12.47;93.69
75985;DHT22;65033;44.660;37.758;2023-04-25T04:08:21;12.55;97.46
75985;DHT22;65033;44.660;37.758;2023-04-25T04:09:27;12.59;100.67
75985;DHT22;65033;44.660;37.758;2023-04-25T04:12:21;12.71;102.15
75985;DHT22;65033;44.660;37.758;2023-04-25T04:13:32;12.76;102.06
75985;DHT22;65033;44.660;37.758;2023-04-25T04:14:40;12.79;102.70
75985;DHT22;65033;44.660;37.758;2023-04-25T04:15:50;12.85;102.06
75985;DHT22;65033;44.660;37.758;2023-04-25T04:17:15;12.90;99.64
75985;DHT22;65033;44.660;37.758;2023-04-25T04:18:38;12.95;95.31
75985;DHT22;65033;44.660;37.758;2023-04-25T04:19:42;13.00;99.75
75985;DHT22;65033;44.660;37.758;2023-04-25T04:21:08;13.03;94.76
75985;DHT22;65033;44.660;37.758;2023-04-25T04:22:16;13.07;96.80
75985;DHT22;65033;44.660;37.758;2023-04-25T04:23:22;13.14;93.23
75985;DHT22;65033;44.660;37.758;2023-04-25T04:24:27;13.17;95.78
75985;DHT22;65033;44.660;37.758;2023-04-25T04:25:45;13.24;93.32
75985;DHT22;65033;44.660;37.758;2023-04-25T04:27:19;13.19;94.37
75985;DHT22;65033;44.660;37.758;2023-04-25T04:28:35;13.23;94.57
75985;DHT22;65033;44.660;37.758;2023-04-25T04:30:09;13.26;97.58
75985;DHT22;65033;44.660;37.758;2023-04-25T04:31:23;13.32;97.41
75985;DHT22;65033;44.660;37.758;2023-04-25T04:32:29;13.38;95.68
75985;DHT22;65033;44.660;37.758;2023-04-25T04:33:36;13.41;94.17
75985;DHT22;65033;44.660;37.758;2023-04-25T04:35:07;13.45;96.16
75985;DHT22;65033;44.660;37.758;2023-04-25T04:36:12;13.46;97.32
75985;DHT22;65033;44.660;37.758;2023-04-25T04:38:46;13.51;99.06
75985;DHT22;65033;44.660;37.758;2023-04-25T04:40:05;13.55;92.03
75985;DHT22;65033;44.660;37.758;2023-04-25T04:41:22;13.59;91.33
75985;DHT22;65033;44.660;37.758;2023-04-25T04:45:09;13.60;94.00
75985;DHT22;65033;44.660;37.758;2023-04-25T04:46:54;13.58;95.33
75985;DHT22;65033;44.660;37.758;2023-04-25T04:48:11;13.64;92.44
75985;DHT22;65033;44.660;37.758;2023-04-25T04:49:40;13.71;87.96
75985;DHT22;65033;44.660;37.758;2023-04-25T04:51:07;13.78;86.85
75985;DHT22;65033;44.660;37.758;2023-04-25T04:52:32;13.81;85.74
75985;DHT22;65033;44.660;37.758;2023-04-25T04:53:53;13.76;89.99
75985;DHT22;65033;44.660;37.758;2023-04-25T04:55:35;13.75;97.99
75985;DHT22;65033;44.660;37.758;2023-04-25T04:56:55;13.79;98.39
75985;DHT22;65033;44.660;37.758;2023-04-25T04:58:24;13.85;97.45
75985;DHT22;65033;44.660;37.758;2023-04-25T04:59:50;13.85;97.39
75985;DHT22;65033;44.660;37.758;2023-04-25T05:01:16;13.91;98.58
75985;DHT22;65033;44.660;37.758;2023-04-25T05:02:55;13.94;99.70
75985;DHT22;65033;44.660;37.758;2023-04-25T05:04:13;13.96;97.84
75985;DHT22;65033;44.660;37.758;2023-04-25T05:05:20;13.97;98.41
75985;DHT22;65033;44.660;37.758;2023-04-25T05:07:05;14.08;94.04
75985;DHT22;65033;44.660;37.758;2023-04-25T05:08:45;14.01;95.46
75985;DHT22;65033;44.660;37.758;2023-04-25T05:10:10;13.96;98.03
75985;DHT22;65033;44.660;37.758;2023-04-25T05:11:31;13.97;95.57
75985;DHT22;65033;44.660;37.758;2023-04-25T05:12:56;13.98;101.43
75985;DHT22;65033;44.660;37.758;2023-04-25T05:14:20;13.98;101.25
75985;DHT22;65033;44.660;37.758;2023-04-25T05:15:42;14.06;98.84
75985;DHT22;65033;44.660;37.758;2023-04-25T05:16:56;14.14;97.83
75985;DHT22;65033;44.660;37.758;2023-04-25T05:18:32;14.27;100.59
75985;DHT22;65033;44.660;37.758;2023-04-25T05:20:00;14.40;97.33
75985;DHT22;65033;44.660;37.758;2023-04-25T05:23:27;14.55;98.06
75985;DHT22;65033;44.660;37.758;2023-04-25T05:25:28;14.65;96.62
75985;DHT22;65033;44.660;37.758;2023-04-25T05:26:49;14.60;96.13
75985;DHT22;65033;44.660;37.758;2023-04-25T05:29:12;14.58;99.02
75985;DHT22;65033;44.660;37.758;2023-04-25T05:34:17;14.69;97.61
75985;DHT22;65033;44.660;37.758;2023-04-25T05:35:45;14.73;97.98
75985;DHT22;65033;44.660;37.758;2023-04-25T05:37:02;14.79;97.32
75985;DHT22;65033;44.660;37.758;2023-04-25T05:38:29;14.68;97.48
75985;DHT22;65033;44.660;37.758;2023-04-25T05:40:17;14.63;97.54
75985;DHT22;65033;44.660;37.758;2023-04-25T05:41:47;14.63;97.14
75985;DHT22;65033;44.660;37.758;2023-04-25T05:43:35;14.56;97.62
75985;DHT22;65033;44.660;37.758;2023-04-25T05:45:12;14.66;97.12
75985;DHT22;65033;44.660;37.758;2023-04-25T05:46:56;14.71;96.58
75985;DHT22;65033;44.660;37.758;2023-04-25T05:48:18;14.71;95.39
75985;DHT22;65033;44.660;37.758;2023-04-25T05:49:43;14.72;97.00
75985;DHT22;65033;44.660;37.758;2023-04-25T05:51:13;14.80;96.23
75985;DHT22;65033;44.660;37.758;2023-04-25T05:52:43;14.71;95.39
75985;DHT22;65033;44.660;37.758;2023-04-25T05:54:06;14.54;96.97
75985;DHT22;65033;44.660;37.758;2023-04-25T05:55:13;14.50;97.03
75985;DHT22;65033;44.660;37.758;2023-04-25T05:56:22;14.42;97.97
75985;DHT22;65033;44.660;37.758;2023-04-25T05:57:28;14.44;96.39
75985;DHT22;65033;44.660;37.758;2023-04-25T05:58:33;14.43;97.69
75985;DHT22;65033;44.660;37.758;2023-04-25T05:59:38;14.41;98.45
75985;DHT22;65033;44.660;37.758;2023-04-25T06:00:46;14.48;97.72
75985;DHT22;65033;44.660;37.758;2023-04-25T06:01:58;14.58;97.81
75985;DHT22;65033;44.660;37.758;2023-04-25T06:03:09;14.66;98.55
75985;DHT22;65033;44.660;37.758;2023-04-25T06:04:14;14.70;97.52
75985;DHT22;65033;44.660;37.758;2023-04-25T06:05:20;14.68;98.08
75985;DHT22;65033;44.660;37.758;2023-04-25T06:06:26;14.58;97.39
75985;DHT22;65033;44.660;37.758;2023-04-25T06:07:32;14.49;97.61
75985;DHT22;65033;44.660;37.758;2023-04-25T06:08:40;14.48;96.98
75985;DHT22;65033;44.660;37.758;2023-04-25T06:09:52;14.44;97.00
75985;DHT22;65033;44.660;37.758;2023-04-25T06:11:00;14.43;98.02
75985;DHT22;65033;44.660;37.758;2023-04-25T06:12:04;14.45;97.02
75985;DHT22;65033;44.660;37.758;2023-04-25T06:13:08;14.56;97.13
75985;DHT22;65033;44.660;37.758;2023-04-25T06:14:15;14.60;96.08
75985;DHT22;65033;44.660;37.758;2023-04-25T06:15:29;14.66;97.13
75985;DHT22;65033;44.660;37.758;2023-04-25T06:16:41;14.75;96.91
75985;DHT22;65033;44.660;37.758;2023-04-25T06:17:45;14.87;95.67
75985;DHT22;65033;44.660;37.758;2023-04-25T06:18:49;14.92;96.10
75985;DHT22;65033;44.660;37.758;2023-04-25T06:19:52;14.92;95.77
75985;DHT22;65033;44.660;37.758;2023-04-25T06:20:56;14.98;97.45
75985;DHT22;65033;44.660;37.758;2023-04-25T06:22:00;14.99;96.41
75985;DHT22;65033;44.660;37.758;2023-04-25T06:23:07;15.06;95.13
75985;DHT22;65033;44.660;37.758;2023-04-25T06:24:27;15.15;95.10
75985;DHT22;65033;44.660;37.758;2023-04-25T06:25:33;15.28;94.33
75985;DHT22;65033;44.660;37.758;2023-04-25T06:26:41;15.40;95.51
75985;DHT22;65033;44.660;37.758;2023-04-25T06:27:46;15.49;95.39
75985;DHT22;65033;44.660;37.758;2023-04-25T06:29:00;15.61;93.82
75985;DHT22;65033;44.660;37.758;2023-04-25T06:30:08;15.65;94.69
75985;DHT22;65033;44.660;37.758;2023-04-25T06:31:16;15.70;93.30
75985;DHT22;65033;44.660;37.758;2023-04-25T06:32:29;15.78;93.00
75985;DHT22;65033;44.660;37.758;2023-04-25T06:33:36;15.83;93.12
75985;DHT22;65033;44.660;37.758;2023-04-25T06:34:54;15.87;94.23
75985;DHT22;65033;44.660;37.758;2023-04-25T06:36:05;15.91;92.69
75985;DHT22;65033;44.660;37.758;2023-04-25T06:37:14;15.93;93.61
75985;DHT22;65033;44.660;37.758;2023-04-25T06:38:31;15.99;94.73
75985;DHT22;65033;44.660;37.758;2023-04-25T06:39:37;15.89;94.58
75985;DHT22;65033;44.660;37.758;2023-04-25T06:40:54;15.86;94.11
75985;DHT22;65033;44.660;37.758;2023-04-25T06:42:00;15.81;93.47
75985;DHT22;65033;44.660;37.758;2023-04-25T06:43:20;15.72;93.45
75985;DHT22;65033;44.660;37.758;2023-04-25T06:44:52;15.71;93.40
75985;DHT22;65033;44.660;37.758;2023-04-25T06:45:56;15.73;91.80
75985;DHT22;65033;44.660;37.758;2023-04-25T06:47:03;15.75;91.46
75985;DHT22;65033;44.660;37.758;2023-04-25T06:48:09;15.71;91.34
75985;DHT22;65033;44.660;37.758;2023-04-25T06:49:20;15.65;92.59
75985;DHT22;65033;44.660;37.758;2023-04-25T06:50:26;15.55;92.82
75985;DHT22;65033;44.660;37.758;2023-04-25T06:51:31;15.52;93.27
75985;DHT22;65033;44.660;37.758;2023-04-25T06:52:56;15.52;92.65
75985;DHT22;65033;44.660;37.758;2023-04-25T06:54:07;15.51;93.85
75985;DHT22;65033;44.660;37.758;2023-04-25T06:55:27;15.53;92.37
75985;DHT22;65033;44.660;37.758;2023-04-25T06:56:53;15.48;93.02
75985;DHT22;65033;44.660;37.758;2023-04-25T06:57:58;15.49;90.41
75985;DHT22;65033;44.660;37.758;2023-04-25T06:59:35;15.47;92.03
75985;DHT22;65033;44.660;37.758;2023-04-25T07:00:49;15.43;91.86
75985;DHT22;65033;44.660;37.758;2023-04-25T07:01:58;15.43;93.95
75985;DHT22;65033;44.660;37.758;2023-04-25T07:03:05;15.46;90.63
75985;DHT22;65033;44.660;37.758;2023-04-25T07:04:21;15.46;90.02
75985;DHT22;65033;44.660;37.758;2023-04-25T07:05:37;15.49;92.24
75985;DHT22;65033;44.660;37.758;2023-04-25T07:06:43;15.55;89.84
75985;DHT22;65033;44.660;37.758;2023-04-25T07:07:51;15.55;89.76
75985;DHT22;65033;44.660;37.758;2023-04-25T07:08:59;15.57;93.28
75985;DHT22;65033;44.660;37.758;2023-04-25T07:10:08;15.60;92.01
75985;DHT22;65033;44.660;37.758;2023-04-25T07:11:13;15.65;90.73
75985;DHT22;65033;44.660;37.758;2023-04-25T07:12:21;15.67;90.85
75985;DHT22;65033;44.660;37.758;2023-04-25T07:13:41;15.72;90.29
75985;DHT22;65033;44.660;37.758;2023-04-25T07:14:47;15.70;90.15
75985;DHT22;65033;44.660;37.758;2023-04-25T07:15:56;15.72;90.39
75985;DHT22;65033;44.660;37.758;2023-04-25T07:17:07;15.75;90.30
75985;DHT22;65033;44.660;37.758;2023-04-25T07:18:13;15.74;91.86
75985;DHT22;65033;44.660;37.758;2023-04-25T07:19:23;15.75;91.28
75985;DHT22;65033;44.660;37.758;2023-04-25T07:20:45;15.80;91.24
75985;DHT22;65033;44.660;37.758;2023-04-25T07:21:52;15.73;89.57
75985;DHT22;65033;44.660;37.758;2023-04-25T07:22:57;15.72;89.15
75985;DHT22;65033;44.660;37.758;2023-04-25T07:24:00;15.69;90.57
75985;DHT22;65033;44.660;37.758;2023-04-25T07:25:10;15.61;90.89
75985;DHT22;65033;44.660;37.758;2023-04-25T07:26:14;15.58;90.59
75985;DHT22;65033;44.660;37.758;2023-04-25T07:27:41;15.54;91.77
75985;DHT22;65033;44.660;37.758;2023-04-25T07:28:53;15.45;91.80
75985;DHT22;65033;44.660;37.758;2023-04-25T07:30:04;15.53;90.60
75985;DHT22;65033;44.660;37.758;2023-04-25T07:31:10;15.51;92.30
75985;DHT22;65033;44.660;37.758;2023-04-25T07:32:14;15.47;91.10
75985;DHT22;65033;44.660;37.758;2023-04-25T07:33:18;15.45;91.39
75985;DHT22;65033;44.660;37.758;2023-04-25T07:34:29;15.41;90.19
75985;DHT22;65033;44.660;37.758;2023-04-25T07:35:34;15.34;91.25
75985;DHT22;65033;44.660;37.758;2023-04-25T07:36:44;15.28;91.79
75985;DHT22;65033;44.660;37.758;2023-04-25T07:37:49;15.25;89.59
75985;DHT22;65033;44.660;37.758;2023-04-25T07:38:56;15.24;89.15
75985;DHT22;65033;44.660;37.758;2023-04-25T07:40:00;15.22;90.21